Terminal Aerodrome Forecast
Issued by NWS

Home | Current Version | Previous Version | Text Only | Print | Product List | Glossary On
Versions: 1 2 3 4 5 6 7 8 9 10 11 12 13 14 15 16 17
000
FTUS42 KFFC 251731
TAFRYY
TAF
KRYY 251731Z 2518/2618 22010KT P6SM BKN015 BKN030
     FM252000 22010G18KT P6SM SCT030 BKN050
      TEMPO 2522/2602 VRB12G22KT 3SM TSRA BKN020CB
     FM260200 23008KT P6SM BKN040
     FM260800 24008KT 5SM BR BKN012 BKN035
     FM261300 28010KT P6SM BKN020
     FM261600 29012G22KT P6SM BKN045=

USA.gov is the U.S. government's official web portal to all federal, state and local government web resources and services.